sensor_id;sensor_type;location;lat;lon;timestamp;temperature;humidity
8684;DHT22;4379;59.744;18.206;2023-12-29T00:00:53;0.40;99.90
8684;DHT22;4379;59.744;18.206;2023-12-29T00:03:20;0.40;99.90
8684;DHT22;4379;59.744;18.206;2023-12-29T00:05:47;0.40;99.90
8684;DHT22;4379;59.744;18.206;2023-12-29T00:08:14;0.40;99.90
8684;DHT22;4379;59.744;18.206;2023-12-29T00:10:41;0.30;99.90
8684;DHT22;4379;59.744;18.206;2023-12-29T00:13:08;0.30;99.90
8684;DHT22;4379;59.744;18.206;2023-12-29T00:15:35;0.20;99.90
8684;DHT22;4379;59.744;18.206;2023-12-29T00:18:02;0.20;99.90
8684;DHT22;4379;59.744;18.206;2023-12-29T00:20:30;0.20;99.90
8684;DHT22;4379;59.744;18.206;2023-12-29T00:23:07;0.20;99.90
8684;DHT22;4379;59.744;18.206;2023-12-29T00:25:38;0.20;99.90
8684;DHT22;4379;59.744;18.206;2023-12-29T00:28:05;0.20;99.90
8684;DHT22;4379;59.744;18.206;2023-12-29T00:30:32;0.30;99.90
8684;DHT22;4379;59.744;18.206;2023-12-29T00:33:19;0.20;99.90
8684;DHT22;4379;59.744;18.206;2023-12-29T00:35:46;0.10;99.90
8684;DHT22;4379;59.744;18.206;2023-12-29T00:38:13;0.10;99.90
8684;DHT22;4379;59.744;18.206;2023-12-29T00:40:40;0.10;99.90
8684;DHT22;4379;59.744;18.206;2023-12-29T00:43:07;0.20;99.90
8684;DHT22;4379;59.744;18.206;2023-12-29T00:45:35;0.30;99.90
8684;DHT22;4379;59.744;18.206;2023-12-29T00:48:03;0.30;99.90
8684;DHT22;4379;59.744;18.206;2023-12-29T00:50:30;0.20;99.90
8684;DHT22;4379;59.744;18.206;2023-12-29T00:52:57;0.30;99.90
8684;DHT22;4379;59.744;18.206;2023-12-29T00:55:24;0.20;99.90
8684;DHT22;4379;59.744;18.206;2023-12-29T00:57:51;0.20;99.90
8684;DHT22;4379;59.744;18.206;2023-12-29T01:00:18;0.30;99.90
8684;DHT22;4379;59.744;18.206;2023-12-29T01:02:45;0.30;99.90
8684;DHT22;4379;59.744;18.206;2023-12-29T01:05:16;0.40;99.90
8684;DHT22;4379;59.744;18.206;2023-12-29T01:07:46;0.40;99.90
8684;DHT22;4379;59.744;18.206;2023-12-29T01:10:13;0.30;99.90
8684;DHT22;4379;59.744;18.206;2023-12-29T01:12:41;0.40;99.90
8684;DHT22;4379;59.744;18.206;2023-12-29T01:15:08;0.40;99.90
8684;DHT22;4379;59.744;18.206;2023-12-29T01:17:35;0.30;99.90
8684;DHT22;4379;59.744;18.206;2023-12-29T01:20:02;0.30;99.90
8684;DHT22;4379;59.744;18.206;2023-12-29T01:22:32;0.20;99.90
8684;DHT22;4379;59.744;18.206;2023-12-29T01:24:59;0.30;99.90
8684;DHT22;4379;59.744;18.206;2023-12-29T01:27:28;0.20;99.90
8684;DHT22;4379;59.744;18.206;2023-12-29T01:29:56;0.10;99.90
8684;DHT22;4379;59.744;18.206;2023-12-29T01:32:23;0.20;99.90
8684;DHT22;4379;59.744;18.206;2023-12-29T01:34:52;0.20;99.90
8684;DHT22;4379;59.744;18.206;2023-12-29T01:37:19;0.20;99.90
8684;DHT22;4379;59.744;18.206;2023-12-29T01:39:46;0.20;99.90
8684;DHT22;4379;59.744;18.206;2023-12-29T01:42:13;0.20;99.90
8684;DHT22;4379;59.744;18.206;2023-12-29T01:44:40;0.20;99.90
8684;DHT22;4379;59.744;18.206;2023-12-29T01:47:14;0.30;99.90
8684;DHT22;4379;59.744;18.206;2023-12-29T01:49:45;0.30;99.90
8684;DHT22;4379;59.744;18.206;2023-12-29T01:52:15;0.30;99.90
8684;DHT22;4379;59.744;18.206;2023-12-29T01:54:44;0.30;99.90
8684;DHT22;4379;59.744;18.206;2023-12-29T01:57:12;0.20;99.90
8684;DHT22;4379;59.744;18.206;2023-12-29T01:59:41;0.20;99.90
8684;DHT22;4379;59.744;18.206;2023-12-29T02:02:08;0.30;99.90
8684;DHT22;4379;59.744;18.206;2023-12-29T02:04:35;0.20;99.90
8684;DHT22;4379;59.744;18.206;2023-12-29T02:07:04;0.20;99.90
8684;DHT22;4379;59.744;18.206;2023-12-29T02:09:31;0.30;99.90
8684;DHT22;4379;59.744;18.206;2023-12-29T02:12:00;0.20;99.90
8684;DHT22;4379;59.744;18.206;2023-12-29T02:14:27;0.20;99.90
8684;DHT22;4379;59.744;18.206;2023-12-29T02:21:57;0.30;99.90
8684;DHT22;4379;59.744;18.206;2023-12-29T02:24:24;0.30;99.90
8684;DHT22;4379;59.744;18.206;2023-12-29T02:26:59;0.30;99.90
8684;DHT22;4379;59.744;18.206;2023-12-29T02:29:30;0.30;99.90
8684;DHT22;4379;59.744;18.206;2023-12-29T02:32:00;0.30;99.90
8684;DHT22;4379;59.744;18.206;2023-12-29T02:34:28;0.20;99.90
8684;DHT22;4379;59.744;18.206;2023-12-29T02:36:56;0.20;99.90
8684;DHT22;4379;59.744;18.206;2023-12-29T02:39:24;0.30;99.90
8684;DHT22;4379;59.744;18.206;2023-12-29T02:41:51;0.30;99.90
8684;DHT22;4379;59.744;18.206;2023-12-29T02:44:18;0.30;99.90
8684;DHT22;4379;59.744;18.206;2023-12-29T02:46:45;0.20;99.90
8684;DHT22;4379;59.744;18.206;2023-12-29T02:49:12;0.20;99.90
8684;DHT22;4379;59.744;18.206;2023-12-29T02:51:40;0.30;99.90
8684;DHT22;4379;59.744;18.206;2023-12-29T02:54:07;0.40;99.90
8684;DHT22;4379;59.744;18.206;2023-12-29T02:56:34;0.40;99.90
8684;DHT22;4379;59.744;18.206;2023-12-29T02:59:02;0.40;99.90
8684;DHT22;4379;59.744;18.206;2023-12-29T03:01:29;0.30;99.90
8684;DHT22;4379;59.744;18.206;2023-12-29T03:03:56;0.30;99.90
8684;DHT22;4379;59.744;18.206;2023-12-29T03:06:23;0.40;99.90
8684;DHT22;4379;59.744;18.206;2023-12-29T03:08:51;0.50;99.90
8684;DHT22;4379;59.744;18.206;2023-12-29T03:11:18;0.60;99.90
8684;DHT22;4379;59.744;18.206;2023-12-29T03:13:45;0.50;99.90
8684;DHT22;4379;59.744;18.206;2023-12-29T03:16:12;0.60;99.90
8684;DHT22;4379;59.744;18.206;2023-12-29T03:18:39;0.70;99.90
8684;DHT22;4379;59.744;18.206;2023-12-29T03:21:09;0.50;99.90
8684;DHT22;4379;59.744;18.206;2023-12-29T03:23:36;0.50;99.90
8684;DHT22;4379;59.744;18.206;2023-12-29T03:26:03;0.40;99.90
8684;DHT22;4379;59.744;18.206;2023-12-29T03:28:30;0.40;99.90
8684;DHT22;4379;59.744;18.206;2023-12-29T03:30:58;0.50;99.90
8684;DHT22;4379;59.744;18.206;2023-12-29T03:33:25;0.40;99.90
8684;DHT22;4379;59.744;18.206;2023-12-29T03:35:52;0.40;99.90
8684;DHT22;4379;59.744;18.206;2023-12-29T03:38:19;0.40;99.90
8684;DHT22;4379;59.744;18.206;2023-12-29T03:40:46;0.40;99.90
8684;DHT22;4379;59.744;18.206;2023-12-29T03:43:13;0.40;99.90
8684;DHT22;4379;59.744;18.206;2023-12-29T03:45:40;0.40;99.90
8684;DHT22;4379;59.744;18.206;2023-12-29T03:48:07;0.40;99.90
8684;DHT22;4379;59.744;18.206;2023-12-29T03:50:36;0.50;99.90
8684;DHT22;4379;59.744;18.206;2023-12-29T03:53:03;0.50;99.90
8684;DHT22;4379;59.744;18.206;2023-12-29T03:55:30;0.50;99.90
8684;DHT22;4379;59.744;18.206;2023-12-29T03:57:57;0.50;99.90
8684;DHT22;4379;59.744;18.206;2023-12-29T04:00:25;0.40;99.90
8684;DHT22;4379;59.744;18.206;2023-12-29T04:02:52;0.60;99.90
8684;DHT22;4379;59.744;18.206;2023-12-29T04:05:19;0.40;99.90
8684;DHT22;4379;59.744;18.206;2023-12-29T04:07:46;0.40;99.90
8684;DHT22;4379;59.744;18.206;2023-12-29T04:10:13;0.60;99.90
8684;DHT22;4379;59.744;18.206;2023-12-29T04:12:40;0.60;99.90
8684;DHT22;4379;59.744;18.206;2023-12-29T04:15:07;0.50;99.90
8684;DHT22;4379;59.744;18.206;2023-12-29T04:17:35;0.40;99.90
8684;DHT22;4379;59.744;18.206;2023-12-29T04:20:02;0.30;99.90
8684;DHT22;4379;59.744;18.206;2023-12-29T04:22:29;0.30;99.90
8684;DHT22;4379;59.744;18.206;2023-12-29T04:24:56;0.30;99.90
8684;DHT22;4379;59.744;18.206;2023-12-29T04:27:23;0.20;99.90
8684;DHT22;4379;59.744;18.206;2023-12-29T04:29:50;0.20;99.90
8684;DHT22;4379;59.744;18.206;2023-12-29T04:32:17;0.20;99.90
8684;DHT22;4379;59.744;18.206;2023-12-29T04:34:44;0.20;99.90
8684;DHT22;4379;59.744;18.206;2023-12-29T04:37:11;0.20;99.90
8684;DHT22;4379;59.744;18.206;2023-12-29T04:39:39;0.20;99.90
8684;DHT22;4379;59.744;18.206;2023-12-29T04:42:06;0.30;99.90
8684;DHT22;4379;59.744;18.206;2023-12-29T04:44:33;0.40;99.90
8684;DHT22;4379;59.744;18.206;2023-12-29T04:47:00;0.30;99.90
8684;DHT22;4379;59.744;18.206;2023-12-29T04:49:27;0.40;99.90
8684;DHT22;4379;59.744;18.206;2023-12-29T04:51:55;0.30;99.90
8684;DHT22;4379;59.744;18.206;2023-12-29T04:54:24;0.30;99.90
8684;DHT22;4379;59.744;18.206;2023-12-29T04:56:51;0.30;99.90
8684;DHT22;4379;59.744;18.206;2023-12-29T04:59:18;0.20;99.90
8684;DHT22;4379;59.744;18.206;2023-12-29T05:01:45;0.20;99.90
8684;DHT22;4379;59.744;18.206;2023-12-29T05:04:12;0.20;99.90
8684;DHT22;4379;59.744;18.206;2023-12-29T05:06:41;0.20;99.90
8684;DHT22;4379;59.744;18.206;2023-12-29T05:09:08;0.20;99.90
8684;DHT22;4379;59.744;18.206;2023-12-29T05:11:35;0.20;99.90
8684;DHT22;4379;59.744;18.206;2023-12-29T05:14:03;0.30;99.90
8684;DHT22;4379;59.744;18.206;2023-12-29T05:16:30;0.30;99.90
8684;DHT22;4379;59.744;18.206;2023-12-29T05:18:57;0.40;99.90
8684;DHT22;4379;59.744;18.206;2023-12-29T05:21:24;0.40;99.90
8684;DHT22;4379;59.744;18.206;2023-12-29T05:23:52;0.30;99.90
8684;DHT22;4379;59.744;18.206;2023-12-29T05:26:19;0.30;99.90
8684;DHT22;4379;59.744;18.206;2023-12-29T05:28:46;0.30;99.90
8684;DHT22;4379;59.744;18.206;2023-12-29T05:31:13;0.20;99.90
8684;DHT22;4379;59.744;18.206;2023-12-29T05:33:40;0.20;99.90
8684;DHT22;4379;59.744;18.206;2023-12-29T05:36:08;0.20;99.90
8684;DHT22;4379;59.744;18.206;2023-12-29T05:38:36;0.20;99.90
8684;DHT22;4379;59.744;18.206;2023-12-29T05:41:04;0.10;99.90
8684;DHT22;4379;59.744;18.206;2023-12-29T05:43:32;0.20;99.90
8684;DHT22;4379;59.744;18.206;2023-12-29T05:46:01;0.30;99.90
8684;DHT22;4379;59.744;18.206;2023-12-29T05:48:28;0.40;99.90
8684;DHT22;4379;59.744;18.206;2023-12-29T05:50:55;0.40;99.90
8684;DHT22;4379;59.744;18.206;2023-12-29T05:53:22;0.30;99.90
8684;DHT22;4379;59.744;18.206;2023-12-29T05:55:49;0.20;99.90
8684;DHT22;4379;59.744;18.206;2023-12-29T05:58:16;0.30;99.90
8684;DHT22;4379;59.744;18.206;2023-12-29T06:00:44;0.30;99.90
8684;DHT22;4379;59.744;18.206;2023-12-29T06:03:11;0.40;99.90
8684;DHT22;4379;59.744;18.206;2023-12-29T06:05:38;0.40;99.90
8684;DHT22;4379;59.744;18.206;2023-12-29T06:08:06;0.40;99.90
8684;DHT22;4379;59.744;18.206;2023-12-29T06:10:33;0.30;99.90
8684;DHT22;4379;59.744;18.206;2023-12-29T06:13:03;0.50;99.90
8684;DHT22;4379;59.744;18.206;2023-12-29T06:15:30;0.40;99.90
8684;DHT22;4379;59.744;18.206;2023-12-29T06:17:57;0.50;99.90
8684;DHT22;4379;59.744;18.206;2023-12-29T06:20:25;0.40;99.90
8684;DHT22;4379;59.744;18.206;2023-12-29T06:22:52;0.40;99.90
8684;DHT22;4379;59.744;18.206;2023-12-29T06:25:19;0.30;99.90
8684;DHT22;4379;59.744;18.206;2023-12-29T06:27:46;0.30;99.90
8684;DHT22;4379;59.744;18.206;2023-12-29T06:30:14;0.30;99.90
8684;DHT22;4379;59.744;18.206;2023-12-29T06:32:41;0.30;99.90
8684;DHT22;4379;59.744;18.206;2023-12-29T06:35:09;0.40;99.90
8684;DHT22;4379;59.744;18.206;2023-12-29T06:37:39;0.40;99.90
8684;DHT22;4379;59.744;18.206;2023-12-29T06:40:07;0.40;99.90
8684;DHT22;4379;59.744;18.206;2023-12-29T06:42:34;0.40;99.90
8684;DHT22;4379;59.744;18.206;2023-12-29T06:45:02;0.30;99.90
8684;DHT22;4379;59.744;18.206;2023-12-29T06:47:29;0.30;99.90
8684;DHT22;4379;59.744;18.206;2023-12-29T06:49:56;0.40;99.90
8684;DHT22;4379;59.744;18.206;2023-12-29T06:52:24;0.40;99.90
8684;DHT22;4379;59.744;18.206;2023-12-29T06:54:51;0.30;99.90
8684;DHT22;4379;59.744;18.206;2023-12-29T06:57:18;0.30;99.90
8684;DHT22;4379;59.744;18.206;2023-12-29T06:59:45;0.30;99.90
8684;DHT22;4379;59.744;18.206;2023-12-29T07:02:12;0.30;99.90
8684;DHT22;4379;59.744;18.206;2023-12-29T07:04:41;0.40;99.90
8684;DHT22;4379;59.744;18.206;2023-12-29T07:07:10;0.50;99.90
8684;DHT22;4379;59.744;18.206;2023-12-29T07:09:40;0.40;99.90
8684;DHT22;4379;59.744;18.206;2023-12-29T07:12:07;0.30;99.90
8684;DHT22;4379;59.744;18.206;2023-12-29T07:14:34;0.30;99.90
8684;DHT22;4379;59.744;18.206;2023-12-29T07:17:03;0.40;99.90
8684;DHT22;4379;59.744;18.206;2023-12-29T07:19:30;0.40;99.90
8684;DHT22;4379;59.744;18.206;2023-12-29T07:22:04;0.50;99.90
8684;DHT22;4379;59.744;18.206;2023-12-29T07:24:33;0.40;99.90
8684;DHT22;4379;59.744;18.206;2023-12-29T07:27:02;0.40;99.90
8684;DHT22;4379;59.744;18.206;2023-12-29T07:29:30;0.60;99.90
8684;DHT22;4379;59.744;18.206;2023-12-29T07:31:57;0.50;99.90
8684;DHT22;4379;59.744;18.206;2023-12-29T07:34:24;0.40;99.90
8684;DHT22;4379;59.744;18.206;2023-12-29T07:36:51;0.40;99.90
8684;DHT22;4379;59.744;18.206;2023-12-29T07:39:18;0.40;99.90
8684;DHT22;4379;59.744;18.206;2023-12-29T07:41:45;0.50;99.90
8684;DHT22;4379;59.744;18.206;2023-12-29T07:44:15;0.40;99.90
8684;DHT22;4379;59.744;18.206;2023-12-29T07:46:43;0.40;99.90
8684;DHT22;4379;59.744;18.206;2023-12-29T07:49:13;0.40;99.90
8684;DHT22;4379;59.744;18.206;2023-12-29T07:51:41;0.30;99.90
8684;DHT22;4379;59.744;18.206;2023-12-29T07:54:09;0.40;99.90
8684;DHT22;4379;59.744;18.206;2023-12-29T07:56:36;0.40;99.90
8684;DHT22;4379;59.744;18.206;2023-12-29T07:59:04;0.60;99.90
8684;DHT22;4379;59.744;18.206;2023-12-29T08:01:32;0.70;99.90
8684;DHT22;4379;59.744;18.206;2023-12-29T08:03:59;0.60;99.90
8684;DHT22;4379;59.744;18.206;2023-12-29T08:06:26;0.70;99.90
8684;DHT22;4379;59.744;18.206;2023-12-29T08:08:54;0.80;99.90
8684;DHT22;4379;59.744;18.206;2023-12-29T08:11:21;0.90;99.90
8684;DHT22;4379;59.744;18.206;2023-12-29T08:13:48;0.80;99.90
8684;DHT22;4379;59.744;18.206;2023-12-29T08:16:16;0.60;99.90
8684;DHT22;4379;59.744;18.206;2023-12-29T08:18:48;0.70;99.90
8684;DHT22;4379;59.744;18.206;2023-12-29T08:21:19;0.70;99.90
8684;DHT22;4379;59.744;18.206;2023-12-29T08:23:47;0.80;99.90
8684;DHT22;4379;59.744;18.206;2023-12-29T08:26:14;0.80;99.90
8684;DHT22;4379;59.744;18.206;2023-12-29T08:28:41;0.60;99.90
8684;DHT22;4379;59.744;18.206;2023-12-29T08:31:09;0.60;99.90
8684;DHT22;4379;59.744;18.206;2023-12-29T08:33:37;0.60;99.90
8684;DHT22;4379;59.744;18.206;2023-12-29T08:36:04;0.60;99.90
8684;DHT22;4379;59.744;18.206;2023-12-29T08:38:31;0.80;99.90
8684;DHT22;4379;59.744;18.206;2023-12-29T08:40:59;0.70;99.90
8684;DHT22;4379;59.744;18.206;2023-12-29T08:43:26;0.80;99.90
8684;DHT22;4379;59.744;18.206;2023-12-29T08:45:53;0.70;99.90
8684;DHT22;4379;59.744;18.206;2023-12-29T08:48:21;0.80;99.90
8684;DHT22;4379;59.744;18.206;2023-12-29T08:50:49;0.70;99.90
8684;DHT22;4379;59.744;18.206;2023-12-29T08:53:16;0.70;99.90
8684;DHT22;4379;59.744;18.206;2023-12-29T08:55:44;0.80;99.90
8684;DHT22;4379;59.744;18.206;2023-12-29T08:58:12;0.80;99.90
8684;DHT22;4379;59.744;18.206;2023-12-29T09:00:39;0.90;99.90
8684;DHT22;4379;59.744;18.206;2023-12-29T09:03:06;1.00;99.90
8684;DHT22;4379;59.744;18.206;2023-12-29T09:05:33;1.10;99.90
8684;DHT22;4379;59.744;18.206;2023-12-29T09:08:00;1.10;99.90
8684;DHT22;4379;59.744;18.206;2023-12-29T09:10:28;1.30;99.90
8684;DHT22;4379;59.744;18.206;2023-12-29T09:12:55;1.30;99.90
8684;DHT22;4379;59.744;18.206;2023-12-29T09:15:22;1.30;99.90
8684;DHT22;4379;59.744;18.206;2023-12-29T09:17:49;1.40;99.90
8684;DHT22;4379;59.744;18.206;2023-12-29T09:20:17;1.50;99.90
8684;DHT22;4379;59.744;18.206;2023-12-29T09:22:44;1.70;99.90
8684;DHT22;4379;59.744;18.206;2023-12-29T09:25:11;1.80;99.90
8684;DHT22;4379;59.744;18.206;2023-12-29T09:27:39;1.90;99.90
8684;DHT22;4379;59.744;18.206;2023-12-29T09:30:06;1.90;99.90
8684;DHT22;4379;59.744;18.206;2023-12-29T09:32:33;1.90;99.90
8684;DHT22;4379;59.744;18.206;2023-12-29T09:35:01;1.90;99.90
8684;DHT22;4379;59.744;18.206;2023-12-29T09:37:28;2.00;99.90
8684;DHT22;4379;59.744;18.206;2023-12-29T09:39:55;2.00;99.90
8684;DHT22;4379;59.744;18.206;2023-12-29T09:42:22;2.00;99.90
8684;DHT22;4379;59.744;18.206;2023-12-29T09:44:52;2.00;99.90
8684;DHT22;4379;59.744;18.206;2023-12-29T09:47:23;2.00;99.90
8684;DHT22;4379;59.744;18.206;2023-12-29T09:49:54;1.90;99.90
8684;DHT22;4379;59.744;18.206;2023-12-29T09:52:22;1.80;99.90
8684;DHT22;4379;59.744;18.206;2023-12-29T09:54:52;2.00;99.90
8684;DHT22;4379;59.744;18.206;2023-12-29T09:57:20;2.10;99.90
8684;DHT22;4379;59.744;18.206;2023-12-29T09:59:49;2.20;99.90
8684;DHT22;4379;59.744;18.206;2023-12-29T10:02:20;2.20;99.90
8684;DHT22;4379;59.744;18.206;2023-12-29T10:04:49;2.00;99.90
8684;DHT22;4379;59.744;18.206;2023-12-29T10:07:25;1.90;99.90
8684;DHT22;4379;59.744;18.206;2023-12-29T10:09:58;1.90;99.90
8684;DHT22;4379;59.744;18.206;2023-12-29T10:12:27;1.60;99.90
8684;DHT22;4379;59.744;18.206;2023-12-29T10:17:51;1.80;99.90
8684;DHT22;4379;59.744;18.206;2023-12-29T10:20:44;1.80;99.90
8684;DHT22;4379;59.744;18.206;2023-12-29T10:26:00;1.90;99.90
8684;DHT22;4379;59.744;18.206;2023-12-29T10:28:27;1.90;99.90
8684;DHT22;4379;59.744;18.206;2023-12-29T10:30:54;1.90;99.90
8684;DHT22;4379;59.744;18.206;2023-12-29T10:33:21;1.80;99.90
8684;DHT22;4379;59.744;18.206;2023-12-29T10:36:02;1.80;99.90
8684;DHT22;4379;59.744;18.206;2023-12-29T10:38:30;1.70;99.90
8684;DHT22;4379;59.744;18.206;2023-12-29T10:41:17;1.90;99.90
8684;DHT22;4379;59.744;18.206;2023-12-29T10:43:46;1.90;99.90
8684;DHT22;4379;59.744;18.206;2023-12-29T10:46:21;1.90;99.90
8684;DHT22;4379;59.744;18.206;2023-12-29T10:48:52;1.80;99.90
8684;DHT22;4379;59.744;18.206;2023-12-29T10:51:26;1.90;99.90
8684;DHT22;4379;59.744;18.206;2023-12-29T10:53:56;1.70;99.90
8684;DHT22;4379;59.744;18.206;2023-12-29T10:56:23;1.60;99.90
8684;DHT22;4379;59.744;18.206;2023-12-29T10:59:11;1.80;99.90
8684;DHT22;4379;59.744;18.206;2023-12-29T11:01:39;1.80;99.90
8684;DHT22;4379;59.744;18.206;2023-12-29T11:04:06;1.80;99.90
8684;DHT22;4379;59.744;18.206;2023-12-29T11:06:44;1.60;99.90
8684;DHT22;4379;59.744;18.206;2023-12-29T11:09:14;1.30;99.90
8684;DHT22;4379;59.744;18.206;2023-12-29T11:11:42;1.20;99.90
8684;DHT22;4379;59.744;18.206;2023-12-29T11:14:10;1.20;99.90
8684;DHT22;4379;59.744;18.206;2023-12-29T11:16:39;1.10;99.90
8684;DHT22;4379;59.744;18.206;2023-12-29T11:19:10;1.20;99.90
8684;DHT22;4379;59.744;18.206;2023-12-29T11:21:39;1.30;99.90
8684;DHT22;4379;59.744;18.206;2023-12-29T11:24:07;1.20;99.90
8684;DHT22;4379;59.744;18.206;2023-12-29T11:26:34;1.10;99.90
8684;DHT22;4379;59.744;18.206;2023-12-29T11:29:01;1.20;99.90
8684;DHT22;4379;59.744;18.206;2023-12-29T11:31:31;1.30;99.90
8684;DHT22;4379;59.744;18.206;2023-12-29T11:34:08;1.30;99.90
8684;DHT22;4379;59.744;18.206;2023-12-29T11:36:41;1.30;99.90
8684;DHT22;4379;59.744;18.206;2023-12-29T11:39:24;1.30;99.90
8684;DHT22;4379;59.744;18.206;2023-12-29T11:42:14;1.10;99.90
8684;DHT22;4379;59.744;18.206;2023-12-29T11:44:44;1.20;99.90
8684;DHT22;4379;59.744;18.206;2023-12-29T11:47:37;1.30;99.90
8684;DHT22;4379;59.744;18.206;2023-12-29T11:50:05;1.20;99.90
8684;DHT22;4379;59.744;18.206;2023-12-29T11:55:13;1.20;99.90
8684;DHT22;4379;59.744;18.206;2023-12-29T11:57:44;1.30;99.90
8684;DHT22;4379;59.744;18.206;2023-12-29T12:00:12;1.30;99.90
8684;DHT22;4379;59.744;18.206;2023-12-29T12:02:39;1.30;99.90
8684;DHT22;4379;59.744;18.206;2023-12-29T12:05:11;1.30;99.90
8684;DHT22;4379;59.744;18.206;2023-12-29T12:12:57;1.20;99.90
8684;DHT22;4379;59.744;18.206;2023-12-29T12:18:03;1.50;99.90
8684;DHT22;4379;59.744;18.206;2023-12-29T12:20:35;1.50;99.90
8684;DHT22;4379;59.744;18.206;2023-12-29T12:23:17;1.40;99.90
8684;DHT22;4379;59.744;18.206;2023-12-29T12:25:46;1.50;99.90
8684;DHT22;4379;59.744;18.206;2023-12-29T12:28:14;1.50;99.90
8684;DHT22;4379;59.744;18.206;2023-12-29T12:30:42;1.50;99.90
8684;DHT22;4379;59.744;18.206;2023-12-29T12:33:12;1.50;99.90
8684;DHT22;4379;59.744;18.206;2023-12-29T12:35:41;1.50;99.90
8684;DHT22;4379;59.744;18.206;2023-12-29T12:38:15;1.40;99.90
8684;DHT22;4379;59.744;18.206;2023-12-29T12:40:49;1.40;99.90
8684;DHT22;4379;59.744;18.206;2023-12-29T12:43:17;1.30;99.90
8684;DHT22;4379;59.744;18.206;2023-12-29T12:45:52;1.40;99.90
8684;DHT22;4379;59.744;18.206;2023-12-29T12:51:01;1.40;99.90
8684;DHT22;4379;59.744;18.206;2023-12-29T12:53:30;1.50;99.90
8684;DHT22;4379;59.744;18.206;2023-12-29T12:55:58;1.60;99.90
8684;DHT22;4379;59.744;18.206;2023-12-29T12:58:26;1.40;99.90
8684;DHT22;4379;59.744;18.206;2023-12-29T13:00:57;1.30;99.90
8684;DHT22;4379;59.744;18.206;2023-12-29T13:03:25;1.20;99.90
8684;DHT22;4379;59.744;18.206;2023-12-29T13:05:52;1.20;99.90
8684;DHT22;4379;59.744;18.206;2023-12-29T13:08:20;1.20;99.90
8684;DHT22;4379;59.744;18.206;2023-12-29T13:11:01;1.20;99.90
8684;DHT22;4379;59.744;18.206;2023-12-29T13:13:41;1.20;99.90
8684;DHT22;4379;59.744;18.206;2023-12-29T13:16:10;1.40;99.90
8684;DHT22;4379;59.744;18.206;2023-12-29T13:18:37;1.40;99.90
8684;DHT22;4379;59.744;18.206;2023-12-29T13:21:04;1.40;99.90
8684;DHT22;4379;59.744;18.206;2023-12-29T13:23:32;1.50;99.90
8684;DHT22;4379;59.744;18.206;2023-12-29T13:26:05;1.50;99.90
8684;DHT22;4379;59.744;18.206;2023-12-29T13:28:35;1.50;99.90
8684;DHT22;4379;59.744;18.206;2023-12-29T13:31:08;1.50;99.90
8684;DHT22;4379;59.744;18.206;2023-12-29T13:36:16;1.30;99.90
8684;DHT22;4379;59.744;18.206;2023-12-29T13:38:51;1.30;99.90
8684;DHT22;4379;59.744;18.206;2023-12-29T13:41:20;1.20;99.90
8684;DHT22;4379;59.744;18.206;2023-12-29T13:43:50;1.10;99.90
8684;DHT22;4379;59.744;18.206;2023-12-29T13:46:18;1.20;99.90
8684;DHT22;4379;59.744;18.206;2023-12-29T13:48:47;1.10;99.90
8684;DHT22;4379;59.744;18.206;2023-12-29T13:51:25;1.10;99.90
8684;DHT22;4379;59.744;18.206;2023-12-29T13:54:00;1.20;99.90
8684;DHT22;4379;59.744;18.206;2023-12-29T13:56:28;1.30;99.90
8684;DHT22;4379;59.744;18.206;2023-12-29T13:58:55;1.30;99.90
8684;DHT22;4379;59.744;18.206;2023-12-29T14:01:22;1.30;99.90
8684;DHT22;4379;59.744;18.206;2023-12-29T14:03:59;1.30;99.90
8684;DHT22;4379;59.744;18.206;2023-12-29T14:06:49;1.10;99.90
8684;DHT22;4379;59.744;18.206;2023-12-29T14:09:17;1.10;99.90
8684;DHT22;4379;59.744;18.206;2023-12-29T14:11:46;1.20;99.90
8684;DHT22;4379;59.744;18.206;2023-12-29T14:14:14;1.20;99.90
8684;DHT22;4379;59.744;18.206;2023-12-29T14:16:41;1.00;99.90
8684;DHT22;4379;59.744;18.206;2023-12-29T14:19:08;0.80;99.90
8684;DHT22;4379;59.744;18.206;2023-12-29T14:21:36;0.90;99.90
8684;DHT22;4379;59.744;18.206;2023-12-29T14:24:12;0.90;99.90
8684;DHT22;4379;59.744;18.206;2023-12-29T14:27:02;1.00;99.90
8684;DHT22;4379;59.744;18.206;2023-12-29T14:29:40;0.80;99.90
8684;DHT22;4379;59.744;18.206;2023-12-29T14:32:08;0.90;99.90
8684;DHT22;4379;59.744;18.206;2023-12-29T14:34:36;1.00;99.90
8684;DHT22;4379;59.744;18.206;2023-12-29T14:37:03;1.10;99.90
8684;DHT22;4379;59.744;18.206;2023-12-29T14:39:30;1.10;99.90
8684;DHT22;4379;59.744;18.206;2023-12-29T14:41:58;0.90;99.90
8684;DHT22;4379;59.744;18.206;2023-12-29T14:44:26;1.00;99.90
8684;DHT22;4379;59.744;18.206;2023-12-29T14:46:53;1.20;99.90
8684;DHT22;4379;59.744;18.206;2023-12-29T14:49:20;1.00;99.90
8684;DHT22;4379;59.744;18.206;2023-12-29T14:51:47;0.80;99.90
8684;DHT22;4379;59.744;18.206;2023-12-29T14:54:14;0.70;99.90
8684;DHT22;4379;59.744;18.206;2023-12-29T14:56:41;0.80;99.90
8684;DHT22;4379;59.744;18.206;2023-12-29T14:59:08;1.00;99.90
8684;DHT22;4379;59.744;18.206;2023-12-29T15:01:37;1.10;99.90
8684;DHT22;4379;59.744;18.206;2023-12-29T15:04:04;1.20;99.90
8684;DHT22;4379;59.744;18.206;2023-12-29T15:06:32;1.20;99.90
8684;DHT22;4379;59.744;18.206;2023-12-29T15:08:59;1.00;99.90
8684;DHT22;4379;59.744;18.206;2023-12-29T15:11:26;0.90;99.90
8684;DHT22;4379;59.744;18.206;2023-12-29T15:13:53;1.00;99.90
8684;DHT22;4379;59.744;18.206;2023-12-29T15:16:20;1.10;99.90
8684;DHT22;4379;59.744;18.206;2023-12-29T15:18:47;1.20;99.90
8684;DHT22;4379;59.744;18.206;2023-12-29T15:21:14;1.30;99.90
8684;DHT22;4379;59.744;18.206;2023-12-29T15:23:41;1.40;99.90
8684;DHT22;4379;59.744;18.206;2023-12-29T15:26:08;1.40;99.90
8684;DHT22;4379;59.744;18.206;2023-12-29T15:28:36;1.40;99.90
8684;DHT22;4379;59.744;18.206;2023-12-29T15:31:03;1.40;99.90
8684;DHT22;4379;59.744;18.206;2023-12-29T15:33:31;1.40;99.90
8684;DHT22;4379;59.744;18.206;2023-12-29T15:35:58;1.00;99.90
8684;DHT22;4379;59.744;18.206;2023-12-29T15:38:25;0.90;99.90
8684;DHT22;4379;59.744;18.206;2023-12-29T15:40:52;1.00;99.90
8684;DHT22;4379;59.744;18.206;2023-12-29T15:43:19;1.10;99.90
8684;DHT22;4379;59.744;18.206;2023-12-29T15:45:46;1.20;99.90
8684;DHT22;4379;59.744;18.206;2023-12-29T15:48:13;1.20;99.90
8684;DHT22;4379;59.744;18.206;2023-12-29T15:50:40;1.10;99.90
8684;DHT22;4379;59.744;18.206;2023-12-29T15:53:07;1.10;99.90
8684;DHT22;4379;59.744;18.206;2023-12-29T15:55:34;1.10;99.90
8684;DHT22;4379;59.744;18.206;2023-12-29T15:58:01;1.00;99.90
8684;DHT22;4379;59.744;18.206;2023-12-29T16:00:31;0.90;99.90
8684;DHT22;4379;59.744;18.206;2023-12-29T16:02:58;0.90;99.90
8684;DHT22;4379;59.744;18.206;2023-12-29T16:05:25;0.80;99.90
8684;DHT22;4379;59.744;18.206;2023-12-29T16:07:52;0.70;99.90
8684;DHT22;4379;59.744;18.206;2023-12-29T16:10:20;0.90;99.90
8684;DHT22;4379;59.744;18.206;2023-12-29T16:12:51;0.90;99.90
8684;DHT22;4379;59.744;18.206;2023-12-29T16:15:18;0.80;99.90
8684;DHT22;4379;59.744;18.206;2023-12-29T16:17:45;0.70;99.90
8684;DHT22;4379;59.744;18.206;2023-12-29T16:20:12;0.80;99.90
8684;DHT22;4379;59.744;18.206;2023-12-29T16:22:39;0.90;99.90
8684;DHT22;4379;59.744;18.206;2023-12-29T16:25:06;1.00;99.90
8684;DHT22;4379;59.744;18.206;2023-12-29T16:27:33;0.90;99.90
8684;DHT22;4379;59.744;18.206;2023-12-29T16:30:00;0.90;99.90
8684;DHT22;4379;59.744;18.206;2023-12-29T16:32:27;1.00;99.90
8684;DHT22;4379;59.744;18.206;2023-12-29T16:35:00;1.10;99.90
8684;DHT22;4379;59.744;18.206;2023-12-29T16:37:27;1.20;99.90